Ana Sayfa
METAR-TAF:

METAR-TAF

Havaalanları :

Makassar, Güney Sulawesi, Endonezya

Enlem: 05-04S, Boylam: 119-33E, yükseklik: 14 m

METAR: eksik

Saat: 23:04 (16:04 UTC)

Tahmin

Rapor saat 11:00 UTC de 5 saat ve 4 dakika önce yapıldı.
Ayın 18'si saat 12 UTC'den ayın 19'si saat 18 UTC'ye kadar geçerli Tahmin
Rüzgar güney/güneydoğudan 3 kt
Görüş mesafesi: 8000 m
1900 ft yükseklikte az bulutlu
Dönüşüyor
ayın 18'si saat 22 UTC'den ayın 19'si saat 00 UTC'ye kadar
Görüş mesafesi 10 km veya daha fazla
Dönüşüyor
ayın 19'si saat 03 UTC'den ayın 19'si saat 05 UTC'ye kadar
Rüzgar batıdan 8 kt
Dönüşüyor
ayın 19'si saat 10 UTC'den ayın 19'si saat 12 UTC'ye kadar
Rüzgar güneydoğudan 3 kt
Görüş mesafesi: 8000 m

TAF: WAAA 181100Z 1812/1918 15003KT 8000 FEW019 BECMG 1822/1900 9999 BECMG 1903/1905 28008KT BECMG 1910/1912 14003KT 8000

4.000'den fazla havaalanı için hava durumu gözlemleri ve tahminleri (METAR ve TAF raporları).

Kullanılabilir istasyonlar harita üzerinde sarı ve kırmızı noktalarla gösterilir.

İstasyonun adını görmek için fareyi noktanın üzerinde gezdirin.

Sonrasında hava gözlem ve tahminlerini görmek için tıklayın.

Haritayı değiştirmek için: yaklaştırmak için siyah artı işaretli yeşil düğmeye ve uzaklaştırmak için de eksi işaretli düğmeye hızla tıklayın; bitişik haritalar için yeşil okları kullanın.


METAR-TAF: